KSPB

Scappoose Industrial Airpark

Scappoose, Oregon, USA
METAR KSPB 162153Z AUTO 00000KT 8SM -RA BKN028 BKN034 OVC042 09/07 A2970 RMK AO2 SLP056 P0003 T00940072
Observed Flight Rules
Dec-16 @ 21:53 UTC (9 minutes ago) Marginal Visual Flight Rules
Visibility Clouds Conditions
8 miles
  • Broken at 2,800' AGL
  • Broken at 3,400' AGL
  • Overcast at 4,200' AGL
  • Light Rain
Temperatures Readings Precipitation
Current 9°C / 48°F
Dewpoint 7°C / 45°F
Humidity 87%
Altimeter 29.7" Hg
Pressure 1005.6 hPa
Elevation 14
Current Rain 0.03
METAR KSPB 162153Z AUTO 00000KT 8SM -RA BKN028 BKN034 OVC042 09/07 A2970 RMK AO2 SLP056 P0003 T00940072
Observed Flight Rules
Dec-16 @ 21:53 UTC
(9 minutes ago)
MVFR
Clouds
  • Broken at 2,800' AGL
  • Broken at 3,400' AGL
  • Overcast at 4,200' AGL
Conditions
  • Light Rain
Temperature Dewpoint
9°C / 48°F 7°C / 45°F
Humidity Altimeter Pressure
87% 29.7" Hg 1005.6 hPa
Current Rain
0.03